sensor_id;sensor_type;location;lat;lon;timestamp;P1;durP1;ratioP1;P2;durP2;ratioP2
36923;SDS011;22841;50.252;18.688;2023-11-22T00:03:28;47.38;;;23.38;;
36923;SDS011;22841;50.252;18.688;2023-11-22T00:05:54;42.47;;;21.98;;
36923;SDS011;22841;50.252;18.688;2023-11-22T00:08:20;44.83;;;22.77;;
36923;SDS011;22841;50.252;18.688;2023-11-22T00:10:46;41.80;;;21.27;;
36923;SDS011;22841;50.252;18.688;2023-11-22T00:23:06;40.33;;;19.63;;
36923;SDS011;22841;50.252;18.688;2023-11-22T00:25:33;40.45;;;20.33;;
36923;SDS011;22841;50.252;18.688;2023-11-22T00:38:00;41.22;;;21.15;;
36923;SDS011;22841;50.252;18.688;2023-11-22T00:56:55;42.83;;;23.27;;
36923;SDS011;22841;50.252;18.688;2023-11-22T00:59:21;38.45;;;20.55;;
36923;SDS011;22841;50.252;18.688;2023-11-22T01:01:47;40.75;;;21.45;;
36923;SDS011;22841;50.252;18.688;2023-11-22T01:04:13;41.05;;;21.65;;
36923;SDS011;22841;50.252;18.688;2023-11-22T01:10:07;40.42;;;20.98;;
36923;SDS011;22841;50.252;18.688;2023-11-22T01:22:28;46.30;;;24.60;;
36923;SDS011;22841;50.252;18.688;2023-11-22T01:24:54;58.45;;;25.85;;
36923;SDS011;22841;50.252;18.688;2023-11-22T01:27:20;51.42;;;25.10;;
36923;SDS011;22841;50.252;18.688;2023-11-22T01:29:46;47.55;;;24.75;;
36923;SDS011;22841;50.252;18.688;2023-11-22T01:39:01;40.95;;;21.77;;
36923;SDS011;22841;50.252;18.688;2023-11-22T03:06:03;45.50;;;23.97;;
36923;SDS011;22841;50.252;18.688;2023-11-22T03:11:53;47.80;;;23.40;;
36923;SDS011;22841;50.252;18.688;2023-11-22T03:14:19;44.15;;;23.05;;
36923;SDS011;22841;50.252;18.688;2023-11-22T03:16:47;42.95;;;23.23;;
36923;SDS011;22841;50.252;18.688;2023-11-22T03:19:14;45.33;;;23.83;;
36923;SDS011;22841;50.252;18.688;2023-11-22T03:21:40;40.95;;;21.90;;
36923;SDS011;22841;50.252;18.688;2023-11-22T03:24:07;38.05;;;20.92;;
36923;SDS011;22841;50.252;18.688;2023-11-22T03:26:34;42.42;;;22.85;;
36923;SDS011;22841;50.252;18.688;2023-11-22T03:29:00;45.53;;;22.27;;
36923;SDS011;22841;50.252;18.688;2023-11-22T03:31:27;48.53;;;22.58;;
36923;SDS011;22841;50.252;18.688;2023-11-22T03:33:54;48.10;;;25.58;;
36923;SDS011;22841;50.252;18.688;2023-11-22T03:36:20;55.42;;;25.75;;
36923;SDS011;22841;50.252;18.688;2023-11-22T03:38:48;46.55;;;25.35;;
36923;SDS011;22841;50.252;18.688;2023-11-22T03:41:15;49.60;;;27.08;;
36923;SDS011;22841;50.252;18.688;2023-11-22T03:43:42;47.63;;;24.15;;
36923;SDS011;22841;50.252;18.688;2023-11-22T03:46:09;40.28;;;22.20;;
36923;SDS011;22841;50.252;18.688;2023-11-22T03:48:37;43.95;;;24.92;;
36923;SDS011;22841;50.252;18.688;2023-11-22T04:53:33;36.75;;;20.20;;
36923;SDS011;22841;50.252;18.688;2023-11-22T04:55:59;39.80;;;19.83;;
36923;SDS011;22841;50.252;18.688;2023-11-22T04:58:27;40.58;;;19.05;;
36923;SDS011;22841;50.252;18.688;2023-11-22T05:00:53;37.95;;;18.08;;
36923;SDS011;22841;50.252;18.688;2023-11-22T05:03:19;37.28;;;18.42;;
36923;SDS011;22841;50.252;18.688;2023-11-22T05:05:45;33.13;;;18.38;;
36923;SDS011;22841;50.252;18.688;2023-11-22T05:08:11;31.95;;;18.35;;
36923;SDS011;22841;50.252;18.688;2023-11-22T05:10:37;33.00;;;18.15;;
36923;SDS011;22841;50.252;18.688;2023-11-22T05:13:04;33.72;;;18.20;;
36923;SDS011;22841;50.252;18.688;2023-11-22T05:15:30;34.83;;;19.17;;
36923;SDS011;22841;50.252;18.688;2023-11-22T05:17:57;32.83;;;17.45;;
36923;SDS011;22841;50.252;18.688;2023-11-22T05:20:23;72.32;;;29.05;;
36923;SDS011;22841;50.252;18.688;2023-11-22T05:22:49;44.47;;;22.23;;
36923;SDS011;22841;50.252;18.688;2023-11-22T05:25:15;36.10;;;20.10;;
36923;SDS011;22841;50.252;18.688;2023-11-22T05:27:41;33.28;;;19.48;;
36923;SDS011;22841;50.252;18.688;2023-11-22T05:30:07;35.15;;;19.48;;
36923;SDS011;22841;50.252;18.688;2023-11-22T05:32:36;37.75;;;19.98;;
36923;SDS011;22841;50.252;18.688;2023-11-22T05:35:02;36.88;;;21.08;;
36923;SDS011;22841;50.252;18.688;2023-11-22T05:37:29;38.97;;;21.08;;
36923;SDS011;22841;50.252;18.688;2023-11-22T05:39:55;41.03;;;20.13;;
36923;SDS011;22841;50.252;18.688;2023-11-22T05:42:21;43.33;;;20.80;;
36923;SDS011;22841;50.252;18.688;2023-11-22T05:44:47;39.65;;;22.40;;
36923;SDS011;22841;50.252;18.688;2023-11-22T05:47:15;32.92;;;19.25;;
36923;SDS011;22841;50.252;18.688;2023-11-22T05:49:43;51.92;;;22.35;;
36923;SDS011;22841;50.252;18.688;2023-11-22T05:52:09;44.92;;;21.02;;
36923;SDS011;22841;50.252;18.688;2023-11-22T05:54:36;37.17;;;20.58;;
36923;SDS011;22841;50.252;18.688;2023-11-22T05:57:02;43.83;;;22.20;;
36923;SDS011;22841;50.252;18.688;2023-11-22T05:59:29;48.08;;;22.23;;
36923;SDS011;22841;50.252;18.688;2023-11-22T06:01:56;37.40;;;20.38;;
36923;SDS011;22841;50.252;18.688;2023-11-22T06:04:22;54.47;;;24.65;;
36923;SDS011;22841;50.252;18.688;2023-11-22T06:06:48;48.55;;;23.90;;
36923;SDS011;22841;50.252;18.688;2023-11-22T06:09:14;41.03;;;21.80;;
36923;SDS011;22841;50.252;18.688;2023-11-22T06:11:40;30.67;;;18.35;;
36923;SDS011;22841;50.252;18.688;2023-11-22T06:14:06;33.85;;;18.17;;
36923;SDS011;22841;50.252;18.688;2023-11-22T06:16:32;34.92;;;18.00;;
36923;SDS011;22841;50.252;18.688;2023-11-22T06:18:58;33.33;;;19.10;;
36923;SDS011;22841;50.252;18.688;2023-11-22T06:21:24;34.28;;;17.85;;
36923;SDS011;22841;50.252;18.688;2023-11-22T06:23:53;35.72;;;19.10;;
36923;SDS011;22841;50.252;18.688;2023-11-22T06:26:24;46.03;;;22.07;;
36923;SDS011;22841;50.252;18.688;2023-11-22T06:28:50;33.35;;;17.90;;
36923;SDS011;22841;50.252;18.688;2023-11-22T06:31:16;32.10;;;17.05;;
36923;SDS011;22841;50.252;18.688;2023-11-22T06:33:42;36.17;;;17.73;;
36923;SDS011;22841;50.252;18.688;2023-11-22T06:36:08;34.40;;;18.10;;
36923;SDS011;22841;50.252;18.688;2023-11-22T06:38:37;31.15;;;18.48;;
36923;SDS011;22841;50.252;18.688;2023-11-22T06:41:03;33.33;;;17.52;;
36923;SDS011;22841;50.252;18.688;2023-11-22T06:43:29;34.25;;;19.17;;
36923;SDS011;22841;50.252;18.688;2023-11-22T06:45:55;32.88;;;18.95;;
36923;SDS011;22841;50.252;18.688;2023-11-22T06:48:21;35.60;;;18.88;;
36923;SDS011;22841;50.252;18.688;2023-11-22T06:50:48;37.95;;;21.25;;
36923;SDS011;22841;50.252;18.688;2023-11-22T06:53:14;39.67;;;20.80;;
36923;SDS011;22841;50.252;18.688;2023-11-22T06:58:36;34.28;;;18.52;;
36923;SDS011;22841;50.252;18.688;2023-11-22T07:01:02;38.10;;;19.00;;
36923;SDS011;22841;50.252;18.688;2023-11-22T07:03:29;39.40;;;19.58;;
36923;SDS011;22841;50.252;18.688;2023-11-22T07:05:55;35.90;;;18.45;;
36923;SDS011;22841;50.252;18.688;2023-11-22T07:08:21;40.28;;;19.95;;
36923;SDS011;22841;50.252;18.688;2023-11-22T07:10:47;37.95;;;21.92;;
36923;SDS011;22841;50.252;18.688;2023-11-22T07:13:15;41.60;;;21.17;;
36923;SDS011;22841;50.252;18.688;2023-11-22T07:15:42;34.25;;;19.90;;
36923;SDS011;22841;50.252;18.688;2023-11-22T07:18:08;33.67;;;18.48;;
36923;SDS011;22841;50.252;18.688;2023-11-22T07:20:35;30.35;;;15.55;;
36923;SDS011;22841;50.252;18.688;2023-11-22T07:23:01;35.83;;;18.40;;
36923;SDS011;22841;50.252;18.688;2023-11-22T07:25:27;51.33;;;27.38;;
36923;SDS011;22841;50.252;18.688;2023-11-22T07:27:54;35.15;;;19.65;;
36923;SDS011;22841;50.252;18.688;2023-11-22T07:30:20;31.77;;;17.45;;
36923;SDS011;22841;50.252;18.688;2023-11-22T07:32:49;32.67;;;17.90;;
36923;SDS011;22841;50.252;18.688;2023-11-22T07:35:17;30.80;;;15.73;;
36923;SDS011;22841;50.252;18.688;2023-11-22T07:37:46;30.70;;;17.25;;
36923;SDS011;22841;50.252;18.688;2023-11-22T07:40:13;39.63;;;19.85;;
36923;SDS011;22841;50.252;18.688;2023-11-22T07:42:40;45.53;;;26.05;;
36923;SDS011;22841;50.252;18.688;2023-11-22T07:45:07;34.20;;;20.67;;
36923;SDS011;22841;50.252;18.688;2023-11-22T07:47:37;34.92;;;18.60;;
36923;SDS011;22841;50.252;18.688;2023-11-22T07:50:08;35.00;;;19.02;;
36923;SDS011;22841;50.252;18.688;2023-11-22T07:52:34;39.72;;;20.38;;
36923;SDS011;22841;50.252;18.688;2023-11-22T07:58:24;44.58;;;26.02;;
36923;SDS011;22841;50.252;18.688;2023-11-22T08:01:15;34.55;;;18.92;;
36923;SDS011;22841;50.252;18.688;2023-11-22T08:04:06;35.15;;;17.58;;
36923;SDS011;22841;50.252;18.688;2023-11-22T08:06:57;33.13;;;18.70;;
36923;SDS011;22841;50.252;18.688;2023-11-22T08:09:27;39.10;;;17.77;;
36923;SDS011;22841;50.252;18.688;2023-11-22T08:11:58;43.30;;;18.60;;
36923;SDS011;22841;50.252;18.688;2023-11-22T08:14:27;30.38;;;16.52;;
36923;SDS011;22841;50.252;18.688;2023-11-22T08:16:53;41.70;;;19.13;;
36923;SDS011;22841;50.252;18.688;2023-11-22T08:19:19;42.15;;;18.52;;
36923;SDS011;22841;50.252;18.688;2023-11-22T08:21:49;42.75;;;19.40;;
36923;SDS011;22841;50.252;18.688;2023-11-22T08:24:15;37.67;;;20.52;;
36923;SDS011;22841;50.252;18.688;2023-11-22T08:26:42;67.97;;;36.47;;
36923;SDS011;22841;50.252;18.688;2023-11-22T08:29:08;60.13;;;35.70;;
36923;SDS011;22841;50.252;18.688;2023-11-22T08:31:34;52.97;;;30.13;;
36923;SDS011;22841;50.252;18.688;2023-11-22T08:34:02;41.47;;;20.92;;
36923;SDS011;22841;50.252;18.688;2023-11-22T08:36:35;35.22;;;19.55;;
36923;SDS011;22841;50.252;18.688;2023-11-22T08:39:02;33.75;;;18.35;;
36923;SDS011;22841;50.252;18.688;2023-11-22T08:41:29;27.67;;;15.77;;
36923;SDS011;22841;50.252;18.688;2023-11-22T08:43:57;27.85;;;14.98;;
36923;SDS011;22841;50.252;18.688;2023-11-22T08:46:23;29.40;;;15.25;;
36923;SDS011;22841;50.252;18.688;2023-11-22T08:48:49;25.75;;;14.60;;
36923;SDS011;22841;50.252;18.688;2023-11-22T08:51:18;27.75;;;14.70;;
36923;SDS011;22841;50.252;18.688;2023-11-22T08:53:45;30.52;;;16.02;;
36923;SDS011;22841;50.252;18.688;2023-11-22T08:56:11;27.52;;;15.52;;
36923;SDS011;22841;50.252;18.688;2023-11-22T08:58:38;38.45;;;18.10;;
36923;SDS011;22841;50.252;18.688;2023-11-22T09:01:05;33.50;;;18.48;;
36923;SDS011;22841;50.252;18.688;2023-11-22T09:03:33;35.45;;;18.30;;
36923;SDS011;22841;50.252;18.688;2023-11-22T09:05:59;41.05;;;20.92;;
36923;SDS011;22841;50.252;18.688;2023-11-22T09:08:26;41.00;;;22.00;;
36923;SDS011;22841;50.252;18.688;2023-11-22T09:10:52;39.63;;;20.92;;
36923;SDS011;22841;50.252;18.688;2023-11-22T09:13:18;31.70;;;17.10;;
36923;SDS011;22841;50.252;18.688;2023-11-22T09:15:46;30.15;;;15.25;;
36923;SDS011;22841;50.252;18.688;2023-11-22T09:18:12;26.70;;;14.07;;
36923;SDS011;22841;50.252;18.688;2023-11-22T09:20:39;26.77;;;14.15;;
36923;SDS011;22841;50.252;18.688;2023-11-22T09:23:09;31.33;;;15.23;;
36923;SDS011;22841;50.252;18.688;2023-11-22T09:25:35;52.17;;;22.70;;
36923;SDS011;22841;50.252;18.688;2023-11-22T09:28:01;34.13;;;18.08;;
36923;SDS011;22841;50.252;18.688;2023-11-22T09:30:30;26.60;;;13.27;;
36923;SDS011;22841;50.252;18.688;2023-11-22T09:33:14;24.35;;;13.00;;
36923;SDS011;22841;50.252;18.688;2023-11-22T09:35:42;24.75;;;12.63;;
36923;SDS011;22841;50.252;18.688;2023-11-22T09:38:12;25.05;;;12.38;;
36923;SDS011;22841;50.252;18.688;2023-11-22T09:40:42;32.80;;;16.23;;
36923;SDS011;22841;50.252;18.688;2023-11-22T09:45:37;21.60;;;12.75;;
36923;SDS011;22841;50.252;18.688;2023-11-22T09:53:22;30.23;;;13.82;;
36923;SDS011;22841;50.252;18.688;2023-11-22T09:58:30;19.77;;;11.18;;
36923;SDS011;22841;50.252;18.688;2023-11-22T10:01:00;17.20;;;8.30;;
36923;SDS011;22841;50.252;18.688;2023-11-22T10:03:27;17.65;;;8.98;;
36923;SDS011;22841;50.252;18.688;2023-11-22T10:05:56;16.42;;;8.10;;
36923;SDS011;22841;50.252;18.688;2023-11-22T10:08:27;17.52;;;10.15;;
36923;SDS011;22841;50.252;18.688;2023-11-22T10:13:31;17.88;;;10.63;;
36923;SDS011;22841;50.252;18.688;2023-11-22T10:15:59;19.27;;;9.52;;
36923;SDS011;22841;50.252;18.688;2023-11-22T10:18:39;22.73;;;10.35;;
36923;SDS011;22841;50.252;18.688;2023-11-22T10:21:26;29.20;;;12.25;;
36923;SDS011;22841;50.252;18.688;2023-11-22T10:23:59;36.03;;;17.25;;
36923;SDS011;22841;50.252;18.688;2023-11-22T10:26:30;33.53;;;14.98;;
36923;SDS011;22841;50.252;18.688;2023-11-22T10:28:56;32.88;;;13.48;;
36923;SDS011;22841;50.252;18.688;2023-11-22T10:31:24;15.65;;;9.00;;
36923;SDS011;22841;50.252;18.688;2023-11-22T10:33:50;18.08;;;9.48;;
36923;SDS011;22841;50.252;18.688;2023-11-22T10:36:18;28.50;;;13.30;;
36923;SDS011;22841;50.252;18.688;2023-11-22T10:38:46;29.73;;;15.50;;
36923;SDS011;22841;50.252;18.688;2023-11-22T10:41:13;32.92;;;16.33;;
36923;SDS011;22841;50.252;18.688;2023-11-22T10:43:40;30.48;;;13.88;;
36923;SDS011;22841;50.252;18.688;2023-11-22T10:46:07;23.92;;;10.70;;
36923;SDS011;22841;50.252;18.688;2023-11-22T10:48:36;24.45;;;12.60;;
36923;SDS011;22841;50.252;18.688;2023-11-22T10:51:03;19.58;;;12.07;;
36923;SDS011;22841;50.252;18.688;2023-11-22T10:53:32;35.30;;;16.42;;
36923;SDS011;22841;50.252;18.688;2023-11-22T10:58:47;39.90;;;16.88;;
36923;SDS011;22841;50.252;18.688;2023-11-22T11:06:24;42.10;;;20.67;;
36923;SDS011;22841;50.252;18.688;2023-11-22T11:08:55;41.25;;;20.25;;
36923;SDS011;22841;50.252;18.688;2023-11-22T15:34:34;49.42;;;24.23;;
36923;SDS011;22841;50.252;18.688;2023-11-22T17:59:58;72.40;;;36.92;;
36923;SDS011;22841;50.252;18.688;2023-11-22T18:41:23;43.63;;;21.00;;
36923;SDS011;22841;50.252;18.688;2023-11-22T18:43:49;45.75;;;21.27;;
36923;SDS011;22841;50.252;18.688;2023-11-22T18:46:15;38.40;;;19.85;;
36923;SDS011;22841;50.252;18.688;2023-11-22T18:48:42;43.08;;;22.95;;
36923;SDS011;22841;50.252;18.688;2023-11-22T18:51:08;39.70;;;20.48;;
36923;SDS011;22841;50.252;18.688;2023-11-22T18:56:10;38.30;;;20.25;;
36923;SDS011;22841;50.252;18.688;2023-11-22T19:01:13;40.10;;;22.27;;
36923;SDS011;22841;50.252;18.688;2023-11-22T19:03:39;41.00;;;20.88;;
36923;SDS011;22841;50.252;18.688;2023-11-22T19:06:05;47.83;;;23.00;;
36923;SDS011;22841;50.252;18.688;2023-11-22T19:11:09;51.65;;;22.92;;
36923;SDS011;22841;50.252;18.688;2023-11-22T19:24:01;44.80;;;21.42;;
36923;SDS011;22841;50.252;18.688;2023-11-22T20:23:38;35.42;;;18.38;;
36923;SDS011;22841;50.252;18.688;2023-11-22T20:26:05;46.80;;;22.75;;
36923;SDS011;22841;50.252;18.688;2023-11-22T20:53:27;39.72;;;20.88;;
36923;SDS011;22841;50.252;18.688;2023-11-22T20:55:54;43.03;;;20.73;;
36923;SDS011;22841;50.252;18.688;2023-11-22T20:58:20;49.63;;;22.52;;
36923;SDS011;22841;50.252;18.688;2023-11-22T21:00:47;38.35;;;18.92;;
36923;SDS011;22841;50.252;18.688;2023-11-22T21:05:49;28.05;;;15.95;;
36923;SDS011;22841;50.252;18.688;2023-11-22T21:08:15;29.67;;;15.30;;
36923;SDS011;22841;50.252;18.688;2023-11-22T21:10:42;28.23;;;14.23;;
36923;SDS011;22841;50.252;18.688;2023-11-22T21:13:09;24.25;;;14.45;;
36923;SDS011;22841;50.252;18.688;2023-11-22T21:15:35;27.52;;;15.77;;
36923;SDS011;22841;50.252;18.688;2023-11-22T21:18:01;35.08;;;15.68;;
36923;SDS011;22841;50.252;18.688;2023-11-22T21:20:27;27.02;;;15.13;;
36923;SDS011;22841;50.252;18.688;2023-11-22T21:22:53;29.08;;;15.45;;
36923;SDS011;22841;50.252;18.688;2023-11-22T21:25:20;30.92;;;15.77;;
36923;SDS011;22841;50.252;18.688;2023-11-22T21:27:46;33.92;;;17.55;;
36923;SDS011;22841;50.252;18.688;2023-11-22T21:30:12;34.67;;;17.42;;
36923;SDS011;22841;50.252;18.688;2023-11-22T21:35:14;31.83;;;17.27;;
36923;SDS011;22841;50.252;18.688;2023-11-22T21:37:40;38.22;;;19.42;;
36923;SDS011;22841;50.252;18.688;2023-11-22T21:40:07;37.17;;;19.23;;
36923;SDS011;22841;50.252;18.688;2023-11-22T21:51:07;60.05;;;26.02;;
36923;SDS011;22841;50.252;18.688;2023-11-22T21:53:33;59.20;;;27.67;;
36923;SDS011;22841;50.252;18.688;2023-11-22T21:56:02;57.92;;;27.52;;
36923;SDS011;22841;50.252;18.688;2023-11-22T21:58:30;62.05;;;30.08;;
36923;SDS011;22841;50.252;18.688;2023-11-22T22:00:58;62.67;;;29.83;;
36923;SDS011;22841;50.252;18.688;2023-11-22T22:03:26;60.00;;;29.88;;
36923;SDS011;22841;50.252;18.688;2023-11-22T22:05:52;61.63;;;30.10;;
36923;SDS011;22841;50.252;18.688;2023-11-22T22:08:20;65.32;;;31.67;;
36923;SDS011;22841;50.252;18.688;2023-11-22T22:10:46;65.95;;;31.85;;
36923;SDS011;22841;50.252;18.688;2023-11-22T22:13:12;61.92;;;30.27;;
36923;SDS011;22841;50.252;18.688;2023-11-22T22:15:41;67.63;;;30.15;;
36923;SDS011;22841;50.252;18.688;2023-11-22T22:18:08;66.15;;;30.85;;
36923;SDS011;22841;50.252;18.688;2023-11-22T22:20:34;60.95;;;32.03;;
36923;SDS011;22841;50.252;18.688;2023-11-22T22:23:01;64.68;;;29.63;;
36923;SDS011;22841;50.252;18.688;2023-11-22T22:25:27;62.40;;;29.95;;
36923;SDS011;22841;50.252;18.688;2023-11-22T22:30:57;67.70;;;29.27;;
36923;SDS011;22841;50.252;18.688;2023-11-22T22:33:23;71.63;;;34.10;;
36923;SDS011;22841;50.252;18.688;2023-11-22T22:38:28;66.35;;;31.92;;
36923;SDS011;22841;50.252;18.688;2023-11-22T22:40:54;69.65;;;32.33;;
36923;SDS011;22841;50.252;18.688;2023-11-22T22:43:20;67.03;;;32.65;;
36923;SDS011;22841;50.252;18.688;2023-11-22T22:45:56;84.43;;;38.63;;
36923;SDS011;22841;50.252;18.688;2023-11-22T22:51:58;62.58;;;30.85;;
36923;SDS011;22841;50.252;18.688;2023-11-22T22:57:47;59.85;;;29.00;;
36923;SDS011;22841;50.252;18.688;2023-11-22T23:00:13;56.72;;;28.20;;
36923;SDS011;22841;50.252;18.688;2023-11-22T23:02:56;57.38;;;26.67;;
36923;SDS011;22841;50.252;18.688;2023-11-22T23:05:24;63.37;;;32.13;;
36923;SDS011;22841;50.252;18.688;2023-11-22T23:07:50;58.83;;;28.55;;
36923;SDS011;22841;50.252;18.688;2023-11-22T23:10:16;56.08;;;27.45;;
36923;SDS011;22841;50.252;18.688;2023-11-22T23:12:43;53.30;;;24.73;;
36923;SDS011;22841;50.252;18.688;2023-11-22T23:15:10;61.97;;;28.05;;
36923;SDS011;22841;50.252;18.688;2023-11-22T23:17:36;57.15;;;26.77;;
36923;SDS011;22841;50.252;18.688;2023-11-22T23:20:02;58.28;;;27.77;;
36923;SDS011;22841;50.252;18.688;2023-11-22T23:22:38;57.92;;;26.48;;
36923;SDS011;22841;50.252;18.688;2023-11-22T23:25:09;54.95;;;26.67;;
36923;SDS011;22841;50.252;18.688;2023-11-22T23:27:36;58.17;;;25.40;;
36923;SDS011;22841;50.252;18.688;2023-11-22T23:30:02;59.03;;;27.05;;
36923;SDS011;22841;50.252;18.688;2023-11-22T23:32:37;61.50;;;26.63;;
36923;SDS011;22841;50.252;18.688;2023-11-22T23:35:04;54.85;;;25.45;;
36923;SDS011;22841;50.252;18.688;2023-11-22T23:37:31;60.75;;;26.50;;
36923;SDS011;22841;50.252;18.688;2023-11-22T23:43:41;48.20;;;23.60;;
36923;SDS011;22841;50.252;18.688;2023-11-22T23:46:08;57.05;;;25.50;;
36923;SDS011;22841;50.252;18.688;2023-11-22T23:48:36;54.22;;;26.08;;
36923;SDS011;22841;50.252;18.688;2023-11-22T23:51:02;55.88;;;26.23;;
36923;SDS011;22841;50.252;18.688;2023-11-22T23:53:30;50.60;;;26.15;;
36923;SDS011;22841;50.252;18.688;2023-11-22T23:55:56;61.50;;;27.52;;
36923;SDS011;22841;50.252;18.688;2023-11-22T23:58:22;52.60;;;24.70;;
